Time;durP1;ratioP1;P1;durP2;ratioP2;P2;SDS_P1;SDS_P2;PMS_P1;PMS_P2;Temp;Humidity;BMP_temperature;BMP_pressure;BME280_temperature;BME280_humidity;BME280_pressure;Samples;Min_cycle;Max_cycle;Signal;HPM_P1;HPM_P2
2023/09/07 00:01:21;;;;;;;4.10;2.50;;;;;;;16.56;100.00;101339.69;5284366;27;20019;-73
2023/09/07 00:03:51;;;;;;;4.22;2.90;;;;;;;16.56;100.00;101337.06;5276703;27;20510;-72
2023/09/07 00:06:21;;;;;;;3.78;2.75;;;;;;;16.64;100.00;101334.94;5273229;28;20437;-72
2023/09/07 00:08:52;;;;;;;3.60;2.28;;;;;;;16.75;100.00;101335.25;5285234;27;20030;-73
2023/09/07 00:11:22;;;;;;;4.65;2.50;;;;;;;16.92;100.00;101337.91;5284643;27;20031;-73
2023/09/07 00:13:52;;;;;;;3.78;2.53;;;;;;;16.84;100.00;101342.72;5284532;27;20019;-72
2023/09/07 00:16:23;;;;;;;3.47;2.25;;;;;;;16.74;100.00;101343.25;5285842;27;20016;-73
2023/09/07 00:18:53;;;;;;;5.90;2.80;;;;;;;16.62;100.00;101338.56;5285326;27;20242;-73
2023/09/07 00:21:23;;;;;;;4.75;2.47;;;;;;;16.49;100.00;101338.28;5287064;27;20034;-73
2023/09/07 00:23:54;;;;;;;3.35;2.17;;;;;;;16.54;100.00;101340.72;5280432;27;20038;-73
2023/09/07 00:26:25;;;;;;;3.17;2.00;;;;;;;16.56;100.00;101339.69;5286217;27;20507;-73
2023/09/07 00:28:55;;;;;;;6.45;2.20;;;;;;;16.56;100.00;101342.34;5273162;28;20035;-73
2023/09/07 00:31:25;;;;;;;4.03;2.42;;;;;;;16.66;100.00;101346.25;5277780;28;20563;-72
2023/09/07 00:33:56;;;;;;;4.90;2.47;;;;;;;16.77;100.00;101349.25;5295461;27;20016;-73
2023/09/07 00:36:26;;;;;;;2.95;2.05;;;;;;;16.87;100.00;101342.56;5289124;28;20043;-72
2023/09/07 00:38:57;;;;;;;4.45;2.50;;;;;;;16.75;100.00;101339.69;5278726;28;20517;-71
2023/09/07 00:41:27;;;;;;;3.40;2.17;;;;;;;16.63;100.00;101341.13;5285515;28;20035;-72
2023/09/07 00:43:57;;;;;;;2.75;1.75;;;;;;;16.34;100.00;101340.75;5290208;28;20031;-73
2023/09/07 00:46:27;;;;;;;6.47;2.42;;;;;;;16.35;100.00;101337.25;5286916;28;20049;-71
2023/09/07 00:48:58;;;;;;;2.50;1.83;;;;;;;16.24;100.00;101337.69;5281395;28;20556;-72
2023/09/07 00:51:28;;;;;;;5.22;2.20;;;;;;;16.17;100.00;101336.28;5279111;28;20019;-71
2023/09/07 00:53:59;;;;;;;4.60;2.25;;;;;;;16.13;100.00;101344.38;5285492;28;20068;-73
2023/09/07 00:56:30;;;;;;;3.47;2.35;;;;;;;16.09;100.00;101338.41;5286383;28;20042;-72
2023/09/07 00:59:01;;;;;;;3.42;2.38;;;;;;;16.27;100.00;101337.56;5285841;28;20392;-72
2023/09/07 01:01:31;;;;;;;3.50;2.40;;;;;;;16.19;100.00;101333.56;5285584;28;20019;-73
2023/09/07 01:04:03;;;;;;;5.25;2.50;;;;;;;16.22;100.00;101343.97;5285658;28;20034;-72
2023/09/07 01:06:40;;;;;;;6.47;2.65;;;;;;;16.07;100.00;101342.88;5272232;28;20030;-73
2023/09/07 01:09:14;;;;;;;5.53;2.70;;;;;;;15.93;100.00;101342.69;5285330;28;20103;-73
2023/09/07 01:11:44;;;;;;;6.25;2.92;;;;;;;15.98;100.00;101340.69;5265784;28;20027;-73
2023/09/07 01:14:15;;;;;;;5.05;2.83;;;;;;;16.00;100.00;101341.47;5286096;28;20039;-72
2023/09/07 01:16:45;;;;;;;6.85;2.83;;;;;;;16.15;100.00;101343.41;5272079;28;20107;-73
2023/09/07 01:19:16;;;;;;;3.90;2.42;;;;;;;16.04;100.00;101335.13;5287463;28;20031;-73
2023/09/07 01:21:47;;;;;;;4.82;3.08;;;;;;;16.06;100.00;101338.53;5285700;28;20050;-73
2023/09/07 01:24:17;;;;;;;5.72;3.00;;;;;;;16.06;100.00;101337.69;5288009;27;20028;-72
2023/09/07 01:26:49;;;;;;;4.97;2.90;;;;;;;16.03;100.00;101335.19;5287881;27;20026;-72
2023/09/07 01:29:19;;;;;;;5.78;2.90;;;;;;;15.90;100.00;101336.69;5273248;27;20175;-73
2023/09/07 01:31:50;;;;;;;4.25;2.67;;;;;;;15.83;100.00;101330.81;5287682;27;20019;-73
2023/09/07 01:34:20;;;;;;;4.55;2.92;;;;;;;15.83;100.00;101335.22;5287105;27;20019;-72
2023/09/07 01:36:50;;;;;;;5.93;2.70;;;;;;;15.81;100.00;101334.44;5289455;27;20015;-73
2023/09/07 01:39:22;;;;;;;4.13;2.80;;;;;;;16.09;100.00;101333.16;5293002;27;20024;-72
2023/09/07 01:41:52;;;;;;;5.18;2.90;;;;;;;16.11;100.00;101326.00;5291383;27;20023;-72
2023/09/07 01:44:22;;;;;;;7.35;3.30;;;;;;;16.15;100.00;101331.97;5280367;27;20020;-72
2023/09/07 01:46:53;;;;;;;7.25;3.40;;;;;;;16.18;100.00;101331.88;5293598;27;20043;-73
2023/09/07 01:49:23;;;;;;;9.10;2.83;;;;;;;15.76;100.00;101336.44;5290870;27;20420;-73
2023/09/07 01:51:53;;;;;;;4.25;2.90;;;;;;;15.71;100.00;101341.06;5290966;27;20023;-73
2023/09/07 01:54:23;;;;;;;5.13;2.78;;;;;;;15.96;100.00;101337.25;5292696;27;20072;-73
2023/09/07 01:56:54;;;;;;;3.80;2.65;;;;;;;15.94;100.00;101332.97;5269911;27;20483;-73
2023/09/07 01:59:24;;;;;;;6.72;3.00;;;;;;;15.95;100.00;101330.28;5295410;27;20031;-72
2023/09/07 02:01:54;;;;;;;5.45;2.65;;;;;;;15.98;100.00;101331.91;5290477;27;20065;-73
2023/09/07 02:04:25;;;;;;;4.85;3.08;;;;;;;15.74;100.00;101330.38;5275162;27;20503;-72
2023/09/07 02:06:55;;;;;;;4.03;3.00;;;;;;;15.66;100.00;101338.63;5289900;27;20035;-73
2023/09/07 02:09:25;;;;;;;5.85;2.90;;;;;;;15.58;100.00;101334.59;5295250;27;20122;-73
2023/09/07 02:11:56;;;;;;;4.35;2.95;;;;;;;15.62;100.00;101337.06;5289788;27;20196;-72
2023/09/07 02:14:26;;;;;;;4.75;3.00;;;;;;;15.49;100.00;101335.88;5291350;27;20022;-72
2023/09/07 02:16:56;;;;;;;4.07;2.65;;;;;;;15.42;100.00;101334.44;5291656;27;20059;-73
2023/09/07 02:19:26;;;;;;;6.97;3.13;;;;;;;15.42;100.00;101339.72;5292577;27;20392;-72
2023/09/07 02:21:57;;;;;;;8.02;3.00;;;;;;;15.40;100.00;101330.16;5290899;27;20447;-72
2023/09/07 02:24:27;;;;;;;4.57;3.13;;;;;;;15.26;100.00;101341.25;5273781;27;20019;-72
2023/09/07 02:26:58;;;;;;;6.95;3.25;;;;;;;15.22;100.00;101351.97;5292801;27;20023;-73
2023/09/07 02:29:28;;;;;;;5.20;3.33;;;;;;;15.31;100.00;101341.94;5294053;27;20472;-71
2023/09/07 02:31:58;;;;;;;5.95;3.42;;;;;;;15.33;100.00;101337.44;5289386;27;20027;-73
2023/09/07 02:34:30;;;;;;;4.18;3.17;;;;;;;15.34;100.00;101347.06;5289481;27;20027;-72
2023/09/07 02:37:00;;;;;;;5.25;3.50;;;;;;;15.33;100.00;101340.09;5268965;27;20383;-73
2023/09/07 02:39:30;;;;;;;5.97;3.35;;;;;;;15.29;100.00;101342.91;5291469;27;20023;-72
2023/09/07 02:42:00;;;;;;;5.70;3.20;;;;;;;15.27;100.00;101340.31;5290706;27;20392;-73
2023/09/07 02:44:31;;;;;;;4.60;3.00;;;;;;;15.29;100.00;101342.91;5278979;27;20034;-73
2023/09/07 02:47:01;;;;;;;4.90;3.13;;;;;;;15.49;100.00;101335.88;5268431;27;20034;-72
2023/09/07 02:49:31;;;;;;;6.30;3.10;;;;;;;15.56;100.00;101336.47;5290311;27;20031;-73
2023/09/07 02:52:02;;;;;;;4.65;3.17;;;;;;;15.61;100.00;101340.63;5292672;27;20504;-72
2023/09/07 02:54:32;;;;;;;5.93;2.83;;;;;;;15.57;100.00;101339.00;5292472;27;20019;-72
2023/09/07 02:57:03;;;;;;;4.88;3.50;;;;;;;15.62;100.00;101352.88;5291403;27;20081;-73
2023/09/07 02:59:33;;;;;;;5.22;3.30;;;;;;;15.62;100.00;101341.44;5278115;27;20031;-72
2023/09/07 03:02:03;;;;;;;6.60;2.88;;;;;;;15.69;100.00;101349.03;5292823;27;20369;-73
2023/09/07 03:04:33;;;;;;;5.38;3.08;;;;;;;15.74;100.00;101339.13;5292512;27;20030;-73
2023/09/07 03:07:04;;;;;;;9.07;3.17;;;;;;;15.66;100.00;101341.25;5289752;27;20304;-72
2023/09/07 03:09:34;;;;;;;5.90;3.42;;;;;;;15.63;100.00;101345.78;5292834;27;20428;-72
2023/09/07 03:12:05;;;;;;;5.35;3.08;;;;;;;15.55;100.00;101346.13;5277676;27;20076;-73
2023/09/07 03:14:35;;;;;;;4.70;3.00;;;;;;;15.43;100.00;101343.19;5292961;27;20074;-72
2023/09/07 03:17:06;;;;;;;5.13;3.10;;;;;;;15.37;100.00;101349.56;5290070;27;20414;-72
2023/09/07 03:19:37;;;;;;;8.00;3.40;;;;;;;15.29;100.00;101343.78;5293632;27;20479;-73
2023/09/07 03:22:08;;;;;;;5.75;3.33;;;;;;;15.32;100.00;101342.81;5294129;27;20031;-72
2023/09/07 03:24:38;;;;;;;6.43;3.20;;;;;;;15.23;100.00;101345.78;5294293;27;20368;-72
2023/09/07 03:27:10;;;;;;;7.47;2.92;;;;;;;15.11;100.00;101343.66;5282950;27;20205;-72
2023/09/07 03:29:41;;;;;;;7.75;3.72;;;;;;;15.10;100.00;101345.44;5277640;27;20041;-73
2023/09/07 03:32:11;;;;;;;9.77;3.33;;;;;;;15.09;100.00;101348.13;5291643;27;20019;-73
2023/09/07 03:34:42;;;;;;;7.13;3.25;;;;;;;14.97;100.00;101344.22;5284992;27;20454;-72
2023/09/07 03:37:12;;;;;;;4.97;2.83;;;;;;;14.92;100.00;101356.72;5292981;27;20015;-72
2023/09/07 03:39:42;;;;;;;6.43;3.40;;;;;;;14.81;100.00;101351.97;5278717;27;20049;-72
2023/09/07 03:42:13;;;;;;;5.63;3.17;;;;;;;14.73;100.00;101354.06;5289236;27;20084;-73
2023/09/07 03:44:43;;;;;;;5.45;3.10;;;;;;;14.74;100.00;101361.03;5294745;27;20487;-72
2023/09/07 03:47:15;;;;;;;7.85;3.38;;;;;;;14.81;100.00;101355.47;5275818;27;20051;-73
2023/09/07 03:49:45;;;;;;;5.38;3.17;;;;;;;14.93;100.00;101352.31;5281114;27;20023;-72
2023/09/07 03:52:15;;;;;;;4.57;2.65;;;;;;;14.97;100.00;101346.00;5293550;27;20054;-73
2023/09/07 03:54:46;;;;;;;5.35;2.90;;;;;;;15.08;100.00;101349.91;5291761;27;20023;-73
2023/09/07 03:57:16;;;;;;;5.68;2.90;;;;;;;15.19;100.00;101349.47;5293316;27;20107;-73
2023/09/07 03:59:47;;;;;;;5.95;3.00;;;;;;;15.27;100.00;101353.50;5289584;27;20031;-72
2023/09/07 04:02:18;;;;;;;4.80;2.60;;;;;;;15.27;100.00;101352.63;5289290;27;20057;-73
2023/09/07 04:04:49;;;;;;;7.68;3.15;;;;;;;15.18;100.00;101348.59;5272387;27;20172;-73
2023/09/07 04:07:20;;;;;;;6.63;3.03;;;;;;;15.10;100.00;101350.72;5291783;27;20733;-73
2023/09/07 04:09:50;;;;;;;5.53;3.13;;;;;;;14.99;100.00;101350.28;5290517;27;20015;-72
2023/09/07 04:12:21;;;;;;;5.13;2.75;;;;;;;14.93;100.00;101344.41;5294638;27;20106;-73
2023/09/07 04:14:51;;;;;;;5.10;2.63;;;;;;;14.72;100.00;101349.69;5292409;27;20064;-73
2023/09/07 04:17:21;;;;;;;3.55;2.60;;;;;;;14.71;100.00;101350.59;5291258;27;20064;-73
2023/09/07 04:19:52;;;;;;;6.65;3.20;;;;;;;14.83;100.00;101349.19;5277321;27;20023;-72
2023/09/07 04:22:22;;;;;;;5.07;3.10;;;;;;;14.59;100.00;101348.47;5292165;27;20432;-73
2023/09/07 04:24:52;;;;;;;5.68;3.15;;;;;;;14.46;100.00;101350.72;5289713;27;20102;-73
2023/09/07 04:27:22;;;;;;;7.05;3.28;;;;;;;14.43;100.00;101358.72;5292683;27;20072;-72
2023/09/07 04:29:53;;;;;;;7.95;3.42;;;;;;;14.53;100.00;101357.47;5277703;28;20048;-72
2023/09/07 04:32:24;;;;;;;6.53;3.90;;;;;;;14.39;100.00;101349.25;5273936;27;20062;-73
2023/09/07 04:34:59;;;;;;;4.95;3.13;;;;;;;14.41;100.00;101354.47;5290958;27;20255;-73
2023/09/07 04:37:29;;;;;;;7.20;3.73;;;;;;;14.37;100.00;101363.38;5286917;28;20023;-72
2023/09/07 04:39:59;;;;;;;6.03;3.45;;;;;;;14.49;100.00;101353.25;5286581;28;20277;-73
2023/09/07 04:42:30;;;;;;;5.35;3.30;;;;;;;14.60;100.00;101350.19;5277990;28;20023;-72
2023/09/07 04:45:00;;;;;;;6.75;3.35;;;;;;;14.57;100.00;101350.31;5276777;28;20177;-72
2023/09/07 04:47:31;;;;;;;5.03;3.10;;;;;;;14.68;100.00;101342.84;5292340;28;20024;-73
2023/09/07 04:50:01;;;;;;;8.43;2.95;;;;;;;14.83;100.00;101353.63;5274807;28;20032;-72
2023/09/07 04:52:32;;;;;;;6.80;3.22;;;;;;;14.80;100.00;101352.88;5290670;28;20035;-73
2023/09/07 04:55:03;;;;;;;5.22;3.22;;;;;;;14.88;100.00;101352.50;5271952;28;20031;-73
2023/09/07 04:57:33;;;;;;;6.53;3.42;;;;;;;14.95;100.00;101348.72;5276644;27;20068;-73
2023/09/07 05:00:09;;;;;;;6.63;3.60;;;;;;;15.15;100.00;101346.09;5288464;27;20032;-72
2023/09/07 05:02:42;;;;;;;;;;;;;;;15.22;100.00;101346.69;5278644;27;20067;-71
2023/09/07 05:05:12;;;;;;;6.32;3.40;;;;;;;15.24;100.00;101353.63;5292095;27;19961;-72
2023/09/07 05:07:43;;;;;;;5.70;3.70;;;;;;;15.26;100.00;101359.69;5273273;27;20020;-72
2023/09/07 05:10:13;;;;;;;8.07;3.58;;;;;;;15.34;100.00;101357.59;5290782;27;20488;-72
2023/09/07 05:12:43;;;;;;;7.82;4.00;;;;;;;15.34;100.00;101362.88;5292476;27;20028;-73
2023/09/07 05:15:13;;;;;;;5.80;3.85;;;;;;;15.32;100.00;101369.16;5296181;27;20034;-73
2023/09/07 05:17:44;;;;;;;5.53;3.75;;;;;;;15.21;100.00;101377.44;5292619;27;20220;-72
2023/09/07 05:20:14;;;;;;;7.43;3.55;;;;;;;15.38;100.00;101368.88;5291588;27;20027;-73
2023/09/07 05:22:45;;;;;;;5.57;3.70;;;;;;;15.51;100.00;101370.91;5277872;27;20399;-72
2023/09/07 05:25:16;;;;;;;6.63;3.78;;;;;;;15.48;100.00;101368.41;5300685;27;20057;-73
2023/09/07 05:27:46;;;;;;;5.57;3.83;;;;;;;15.73;100.00;101370.84;5294642;27;20251;-73
2023/09/07 05:30:16;;;;;;;10.68;4.15;;;;;;;15.69;100.00;101370.09;5296475;27;20391;-72
2023/09/07 05:32:47;;;;;;;6.28;4.40;;;;;;;15.85;100.00;101381.69;5289625;27;21078;-73
2023/09/07 05:35:17;;;;;;;7.47;4.25;;;;;;;15.99;100.00;101374.03;5286985;27;20484;-73
2023/09/07 05:37:49;;;;;;;6.28;4.20;;;;;;;16.08;100.00;101373.59;5276746;27;20031;-73
2023/09/07 05:40:19;;;;;;;5.95;4.22;;;;;;;16.08;100.00;101373.59;5288419;27;20116;-73
2023/09/07 05:42:49;;;;;;;7.13;4.50;;;;;;;16.29;100.00;101377.91;5289591;27;20535;-73
2023/09/07 05:45:20;;;;;;;7.18;4.22;;;;;;;16.41;100.00;101374.72;5290874;27;20027;-73
2023/09/07 05:47:50;;;;;;;6.88;4.35;;;;;;;16.53;100.00;101375.97;5290367;27;20102;-73
2023/09/07 05:50:21;;;;;;;9.32;4.13;;;;;;;16.55;100.00;101376.75;5293450;27;20118;-73
2023/09/07 05:52:51;;;;;;;6.53;4.22;;;;;;;16.63;100.00;101383.38;5292447;27;20026;-73
2023/09/07 05:55:21;;;;;;;6.43;4.05;;;;;;;16.65;100.00;101378.88;5275130;27;20521;-73
2023/09/07 05:57:54;;;;;;;7.70;4.38;;;;;;;16.67;100.00;101379.66;5290304;27;20019;-73
2023/09/07 06:00:25;;;;;;;7.20;4.50;;;;;;;16.77;100.00;101377.41;5294509;27;20054;-73
2023/09/07 06:02:55;;;;;;;9.38;4.70;;;;;;;16.88;100.00;101374.19;5275609;27;20440;-73
2023/09/07 06:05:26;;;;;;;6.88;4.55;;;;;;;17.04;100.00;101363.72;5294495;27;20030;-73
2023/09/07 06:07:56;;;;;;;8.57;4.68;;;;;;;17.12;100.00;101380.06;5291428;27;20480;-73
2023/09/07 06:10:29;;;;;;;7.45;4.32;;;;;;;17.18;100.00;101372.66;5291040;27;20134;-73
2023/09/07 06:12:59;;;;;;;5.72;4.30;;;;;;;17.20;100.00;101377.88;5293133;27;20388;-73
2023/09/07 06:15:29;;;;;;;6.95;3.90;;;;;;;17.29;100.00;101382.72;5291566;27;20024;-73
2023/09/07 06:18:00;;;;;;;6.55;3.70;;;;;;;17.42;100.00;101378.53;5272500;27;20025;-73
2023/09/07 06:20:30;;;;;;;6.20;3.90;;;;;;;17.49;100.00;101383.44;5293199;27;20030;-72
2023/09/07 06:23:00;;;;;;;8.40;4.75;;;;;;;17.53;100.00;101385.03;5291650;27;20047;-72
2023/09/07 06:25:31;;;;;;;8.07;4.80;;;;;;;17.63;100.00;101377.47;5272819;27;20494;-73
2023/09/07 06:28:01;;;;;;;11.38;5.28;;;;;;;17.79;100.00;101383.69;5291396;27;20024;-73
2023/09/07 06:30:32;;;;;;;6.20;4.22;;;;;;;17.88;100.00;101385.81;5296439;27;20029;-72
2023/09/07 06:33:02;;;;;;;8.38;5.10;;;;;;;17.98;100.00;101382.59;5291818;27;20037;-73
2023/09/07 06:35:33;;;;;;;9.32;5.25;;;;;;;18.02;100.00;101384.16;5293049;27;20046;-73
2023/09/07 06:38:04;;;;;;;12.38;5.82;;;;;;;18.25;100.00;101388.22;5291047;27;20557;-73
2023/09/07 06:40:34;;;;;;;8.20;5.32;;;;;;;18.40;100.00;101390.06;5282888;27;20015;-73
2023/09/07 06:43:05;;;;;;;7.00;4.30;;;;;;;18.52;100.00;101392.88;5278027;27;20035;-73
2023/09/07 06:45:35;;;;;;;6.72;4.60;;;;;;;18.76;100.00;101396.84;5293007;27;20012;-73
2023/09/07 06:48:06;;;;;;;9.32;4.70;;;;;;;18.98;100.00;101389.38;5290743;27;20445;-73
2023/09/07 06:50:36;;;;;;;7.57;4.63;;;;;;;18.98;100.00;101390.25;5261492;27;20041;-73
2023/09/07 06:53:06;;;;;;;7.75;4.57;;;;;;;19.22;100.00;101388.00;5276512;28;20023;-73
2023/09/07 06:55:37;;;;;;;8.80;4.47;;;;;;;19.31;100.00;101383.00;5291970;27;20035;-73
2023/09/07 06:58:07;;;;;;;8.10;4.30;;;;;;;21.15;100.00;101389.06;5289010;27;20043;-73
2023/09/07 07:00:37;;;;;;;7.47;4.17;;;;;;;23.54;87.18;101379.69;5288198;27;20071;-74
2023/09/07 07:03:08;;;;;;;5.07;3.25;;;;;;;25.06;81.30;101373.66;5293757;27;20292;-74
2023/09/07 07:05:38;;;;;;;5.07;3.37;;;;;;;27.64;68.37;101370.97;5288902;27;20019;-74
2023/09/07 07:08:09;;;;;;;4.70;2.97;;;;;;;28.12;70.54;101381.66;5276166;27;20330;-74
2023/09/07 07:10:40;;;;;;;5.13;2.70;;;;;;;28.66;67.33;101370.97;5288652;27;20477;-74
2023/09/07 07:13:10;;;;;;;4.03;2.53;;;;;;;29.15;65.62;101379.44;5272556;27;20151;-74
2023/09/07 07:15:41;;;;;;;4.63;2.95;;;;;;;29.72;61.97;101381.66;5285059;27;20031;-74
2023/09/07 07:18:12;;;;;;;4.45;2.45;;;;;;;28.60;65.05;101380.47;5289838;27;20159;-74
2023/09/07 07:20:43;;;;;;;4.60;2.50;;;;;;;29.59;64.66;101383.91;5274564;27;20015;-74
2023/09/07 07:23:13;;;;;;;4.65;2.50;;;;;;;31.59;59.81;101372.97;5290558;27;20114;-74
2023/09/07 07:25:44;;;;;;;7.47;2.90;;;;;;;30.44;61.01;101385.66;5271424;27;20106;-74
2023/09/07 07:28:15;;;;;;;6.47;3.00;;;;;;;30.17;61.16;101383.16;5290574;27;20027;-74
2023/09/07 07:30:45;;;;;;;3.30;2.40;;;;;;;31.48;58.66;101372.44;5292325;27;20054;-75
2023/09/07 07:33:15;;;;;;;5.23;3.40;;;;;;;30.58;62.24;101376.16;5290256;27;20356;-75
2023/09/07 07:35:46;;;;;;;6.40;3.27;;;;;;;31.19;59.44;101378.34;5287256;27;20348;-75
2023/09/07 07:38:16;;;;;;;4.70;3.13;;;;;;;31.03;61.39;101382.84;5273089;28;20035;-74
2023/09/07 07:40:46;;;;;;;5.97;3.10;;;;;;;33.60;55.74;101371.94;5289598;27;20094;-74
2023/09/07 07:43:16;;;;;;;8.10;3.15;;;;;;;32.21;57.23;101377.63;5291156;27;20293;-75
2023/09/07 07:45:47;;;;;;;5.03;2.73;;;;;;;33.87;55.03;101371.38;5275550;27;20162;-74
2023/09/07 07:48:17;;;;;;;5.97;3.37;;;;;;;32.68;56.88;101373.06;5291821;27;20435;-75
2023/09/07 07:50:47;;;;;;;4.90;3.10;;;;;;;32.33;56.54;101370.84;5291539;27;20035;-74
2023/09/07 07:53:18;;;;;;;6.03;2.57;;;;;;;32.65;56.83;101368.00;5291086;27;20395;-74
2023/09/07 07:55:48;;;;;;;3.90;2.77;;;;;;;32.71;56.49;101364.59;5286004;27;20272;-74
2023/09/07 07:58:18;;;;;;;3.40;2.80;;;;;;;32.38;57.14;101367.63;5292932;27;20100;-74
2023/09/07 08:00:49;;;;;;;4.57;2.63;;;;;;;33.03;55.88;101364.41;5276893;27;20492;-74
2023/09/07 08:03:19;;;;;;;3.70;2.57;;;;;;;34.91;53.07;101364.72;5292565;27;20023;-75
2023/09/07 08:05:49;;;;;;;4.07;2.60;;;;;;;34.96;52.93;101364.13;5275218;27;20333;-74
2023/09/07 08:08:20;;;;;;;5.40;2.57;;;;;;;33.83;53.64;101361.91;5292104;27;20062;-74
2023/09/07 08:10:50;;;;;;;4.27;2.80;;;;;;;33.99;54.90;101363.63;5286063;27;20360;-74
2023/09/07 08:13:20;;;;;;;4.63;2.70;;;;;;;33.60;53.87;101368.38;5288826;27;20364;-75
2023/09/07 08:15:51;;;;;;;4.43;2.72;;;;;;;34.97;53.53;101360.38;5293728;27;20023;-75
2023/09/07 08:18:23;;;;;;;5.78;3.30;;;;;;;35.21;51.60;101361.72;5293515;27;20488;-74
2023/09/07 08:20:55;;;;;;;5.43;3.25;;;;;;;33.33;54.29;101360.84;5276923;27;20023;-74
2023/09/07 08:23:25;;;;;;;6.28;2.92;;;;;;;33.83;53.74;101366.53;5292029;27;20965;-74
2023/09/07 08:25:55;;;;;;;6.38;3.17;;;;;;;33.33;54.79;101358.94;5271443;27;20032;-74
2023/09/07 08:28:27;;;;;;;6.47;3.00;;;;;;;33.20;55.70;101358.75;5277442;27;20110;-74
2023/09/07 08:30:59;;;;;;;6.18;3.05;;;;;;;33.64;55.62;101364.28;5275197;28;20277;-74
2023/09/07 08:33:30;;;;;;;5.93;2.97;;;;;;;33.89;54.97;101357.63;5287892;27;20110;-73
2023/09/07 08:36:01;;;;;;;3.75;2.80;;;;;;;34.13;54.15;101358.19;5286520;27;20032;-73
2023/09/07 08:38:31;;;;;;;5.68;3.00;;;;;;;33.74;55.37;101359.47;5289233;27;20521;-74
2023/09/07 08:41:05;;;;;;;4.28;2.60;;;;;;;33.72;54.99;101354.25;5274991;28;20305;-73
2023/09/07 08:43:49;;;;;;;4.80;2.58;;;;;;;34.46;54.07;101358.66;5267976;28;20024;-74
2023/09/07 08:46:23;;;;;;;5.63;3.00;;;;;;;35.29;52.78;101347.97;5290800;28;20085;-74
2023/09/07 08:48:55;;;;;;;4.93;2.70;;;;;;;34.51;54.47;101354.34;5276774;28;20279;-74
2023/09/07 08:51:27;;;;;;;5.45;2.88;;;;;;;34.05;53.34;101357.44;5290037;28;20677;-74
2023/09/07 08:53:58;;;;;;;9.70;3.55;;;;;;;34.38;54.36;101361.50;5292041;28;20106;-74
2023/09/07 08:56:29;;;;;;;5.18;2.80;;;;;;;34.44;53.98;101366.16;5288093;28;20118;-72
2023/09/07 08:58:59;;;;;;;4.95;2.83;;;;;;;34.50;52.44;101368.16;5290056;28;20047;-74
2023/09/07 09:01:31;;;;;;;4.68;2.70;;;;;;;34.40;53.16;101364.88;5286941;28;20023;-73
2023/09/07 09:04:01;;;;;;;4.95;2.75;;;;;;;34.98;53.26;101357.47;5277439;28;20560;-74
2023/09/07 09:06:32;;;;;;;4.27;2.90;;;;;;;35.15;52.17;101364.38;5289678;28;20043;-74
2023/09/07 09:09:05;;;;;;;5.93;2.67;;;;;;;35.82;51.53;101357.47;5285881;28;20609;-73
2023/09/07 09:11:35;;;;;;;4.32;2.55;;;;;;;34.36;53.19;101358.97;5277283;28;20122;-74
2023/09/07 09:14:06;;;;;;;6.40;2.72;;;;;;;35.40;52.49;101355.63;5290821;28;20135;-73
2023/09/07 09:16:36;;;;;;;4.80;2.80;;;;;;;34.94;51.99;101363.47;5290944;28;20023;-74
2023/09/07 09:19:08;;;;;;;5.47;2.73;;;;;;;33.63;54.63;101365.31;5284352;28;20030;-74
2023/09/07 09:21:39;;;;;;;5.05;2.47;;;;;;;34.43;55.22;101362.63;5283681;28;20108;-74
2023/09/07 09:24:10;;;;;;;5.27;2.87;;;;;;;34.05;54.02;101368.31;5284242;28;20019;-74
2023/09/07 09:26:40;;;;;;;5.45;3.28;;;;;;;32.08;56.22;101361.06;5282950;28;20023;-74
2023/09/07 09:29:11;;;;;;;7.72;3.05;;;;;;;31.46;57.17;101359.09;5281623;28;20524;-73
2023/09/07 09:31:42;;;;;;;3.97;2.70;;;;;;;31.15;59.54;101362.63;5276314;28;20023;-73
2023/09/07 09:34:13;;;;;;;6.07;2.97;;;;;;;31.04;60.41;101347.53;5284714;28;20056;-74
2023/09/07 09:36:43;;;;;;;6.03;3.03;;;;;;;30.45;60.46;101354.13;5282163;28;20024;-74
2023/09/07 09:39:24;;;;;;;6.60;3.08;;;;;;;30.24;59.64;101359.09;5285245;28;20039;-74
2023/09/07 09:41:55;;;;;;;6.93;2.92;;;;;;;30.54;61.06;101348.59;5283288;28;20049;-74
2023/09/07 09:44:29;;;;;;;6.90;3.00;;;;;;;30.23;62.42;101350.13;5286280;27;20119;-73
2023/09/07 09:46:59;;;;;;;5.80;2.70;;;;;;;30.05;60.88;101345.84;5290529;27;20035;-73
2023/09/07 09:49:29;;;;;;;4.75;2.40;;;;;;;29.88;59.96;101339.47;5289113;27;20040;-73
2023/09/07 09:52:00;;;;;;;8.95;3.00;;;;;;;29.65;60.54;101345.53;5277464;27;20119;-73
2023/09/07 09:54:34;;;;;;;6.95;2.60;;;;;;;29.63;61.94;101342.16;5273391;27;20094;-73
2023/09/07 09:57:05;;;;;;;10.10;3.40;;;;;;;29.13;61.91;101333.81;5288370;27;20384;-73
2023/09/07 09:59:35;;;;;;;4.68;2.70;;;;;;;29.29;61.88;101336.66;5279355;27;20028;-73
2023/09/07 10:02:06;;;;;;;5.40;2.80;;;;;;;29.06;63.32;101331.88;5275199;27;20024;-73
2023/09/07 10:04:37;;;;;;;4.97;2.88;;;;;;;29.31;62.78;101326.56;5285790;27;20638;-73
2023/09/07 10:07:07;;;;;;;5.50;2.90;;;;;;;29.53;62.99;101327.91;5290048;27;20031;-73
2023/09/07 10:09:38;;;;;;;3.80;2.33;;;;;;;29.46;61.31;101325.03;5288138;27;20851;-73
2023/09/07 10:12:12;;;;;;;3.05;2.22;;;;;;;29.52;60.62;101327.09;5286717;27;20315;-73
2023/09/07 10:14:44;;;;;;;7.00;2.58;;;;;;;29.43;62.60;101321.75;5289169;27;20400;-74
2023/09/07 10:17:24;;;;;;;4.85;2.83;;;;;;;28.79;62.07;101321.13;5286109;27;20391;-73
2023/09/07 10:20:07;;;;;;;4.82;2.78;;;;;;;28.41;62.52;101332.16;5263331;27;20035;-72
2023/09/07 10:22:37;;;;;;;4.18;2.60;;;;;;;28.32;62.31;101310.69;5274717;27;20569;-73
2023/09/07 10:25:21;;;;;;;4.30;2.87;;;;;;;28.52;64.27;101321.19;5275143;27;20031;-73
2023/09/07 10:27:51;;;;;;;5.78;3.00;;;;;;;28.12;63.19;101314.44;5288275;27;20366;-73
2023/09/07 10:30:24;;;;;;;5.72;3.10;;;;;;;27.92;63.13;101320.88;5286692;27;20519;-73
2023/09/07 10:32:54;;;;;;;6.85;2.50;;;;;;;27.86;64.45;101325.00;5271789;27;20054;-73
2023/09/07 10:35:27;;;;;;;5.43;2.90;;;;;;;27.78;64.28;101330.25;5288231;27;20027;-73
2023/09/07 10:37:58;;;;;;;7.38;2.60;;;;;;;28.24;66.15;101324.84;5288908;27;20034;-73
2023/09/07 10:40:29;;;;;;;5.90;2.58;;;;;;;28.43;63.71;101316.69;5286731;27;20020;-72
2023/09/07 10:43:04;;;;;;;5.45;2.67;;;;;;;28.10;63.94;101327.19;5287949;27;20475;-73
2023/09/07 10:45:34;;;;;;;3.85;2.65;;;;;;;27.97;65.18;101329.34;5261845;27;20177;-73
2023/09/07 10:48:05;;;;;;;6.43;2.87;;;;;;;28.15;64.62;101335.66;5290722;27;20089;-73
2023/09/07 10:50:43;;;;;;;6.40;2.80;;;;;;;28.00;64.40;101332.59;5289767;27;20571;-73
2023/09/07 10:53:14;;;;;;;6.07;3.25;;;;;;;27.86;64.43;101329.53;5278133;27;20099;-73
2023/09/07 10:55:45;;;;;;;4.50;2.67;;;;;;;27.96;64.83;101324.97;5287273;27;20384;-73
2023/09/07 10:58:26;;;;;;;4.10;2.60;;;;;;;28.06;65.42;101317.69;5288506;27;20025;-73
2023/09/07 11:00:57;;;;;;;5.05;2.70;;;;;;;28.13;63.45;101316.97;5288654;27;20551;-73
2023/09/07 11:03:28;;;;;;;4.18;2.50;;;;;;;28.16;62.85;101319.34;5277342;27;20118;-72
2023/09/07 11:06:13;;;;;;;4.90;2.72;;;;;;;28.11;64.67;101305.50;5274729;27;20114;-73
2023/09/07 11:08:43;;;;;;;5.05;2.70;;;;;;;28.11;64.87;101315.44;5275270;27;20030;-73
2023/09/07 11:11:13;;;;;;;4.57;2.73;;;;;;;27.98;63.59;101310.38;5287389;27;20015;-73
2023/09/07 11:13:44;;;;;;;3.83;2.38;;;;;;;28.09;63.26;101301.28;5276302;27;20269;-73
2023/09/07 11:16:14;;;;;;;6.73;2.87;;;;;;;27.90;64.33;101304.03;5275333;27;20026;-74
2023/09/07 11:18:46;;;;;;;3.70;2.53;;;;;;;27.90;63.41;101304.91;5288242;27;20808;-73
2023/09/07 11:21:16;;;;;;;7.25;2.90;;;;;;;27.89;63.29;101302.34;5286865;27;20289;-73
2023/09/07 11:23:46;;;;;;;4.43;2.58;;;;;;;27.87;63.74;101291.75;5286005;27;20089;-74
2023/09/07 11:26:17;;;;;;;4.65;2.45;;;;;;;27.92;64.41;101296.69;5281643;27;20024;-73
2023/09/07 11:28:47;;;;;;;6.03;2.50;;;;;;;28.05;63.49;101292.66;5271729;27;20038;-73
2023/09/07 11:31:20;;;;;;;3.83;2.50;;;;;;;27.75;62.65;101292.09;5271882;27;20023;-73
2023/09/07 11:33:51;;;;;;;4.85;2.55;;;;;;;27.87;63.68;101293.56;5271063;27;20289;-73
2023/09/07 11:36:24;;;;;;;5.20;2.60;;;;;;;27.75;64.30;101292.91;5285616;27;20503;-72